Ontario, CA (91764)

11:11 AM PDT on May 27, 2015 (GMT -0700)
Winery Ridge | | Change Station
CLOSE
Current Station
Personal Weather Station
Location: Rancho Cucamonga, CA
Elevation: 1263 ft
Nearby Weather Stations

Elev 1263 ft 34.11 °N, 117.61 °W | Updated 8 seconds ago

Haze
Haze
64.6 °F
Feels Like 64.6 °F
N
1.8
Wind Variable Wind from SSW
Gusts 2.5 mph

Today
High -- | Low -- °F
--% Chance of Precip.
Yesterday
High -- | Low -- °F
Precip. -- in
5:41 AM 7:53 PM
Waxing Gibbous, 69% visible
Pressure 29.99 in
Visibility 5.0 miles
Clouds Overcast 2000 ft
Dew Point 53 °F
Humidity 66%
Rainfall 0.00 in
Snow Depth Not available.
UV 5.0 out of 12
Pollen 3.90 out of 12
Air Quality Not available.
Flu Activity Sporadic
METAR KONT 271753Z VRB03KT 5SM HZ OVC020 17/11 A3000 RMK AO2 SLP154 T01670111 10172 20150 53005

More Conditions Fewer Conditions

Pressure 29.99 in
Visibility 5.0 miles
Clouds Overcast 2000 ft
Dew Point 53 °F
Humidity 66%
Rainfall 0.00 in
Snow Depth Not available.
UV 5.0 out of 12
Pollen 3.90 out of 12
Air Quality Not available.
Flu Activity Sporadic
METAR KONT 271753Z VRB03KT 5SM HZ OVC020 17/11 A3000 RMK AO2 SLP154 T01670111 10172 20150 53005

More Conditions Fewer Conditions

10-Day Weather Forecast

Almanac

Astronomy

May. 27, 2015 Rise Set
Actual Time
Civil Twilight
Nautical Twilight
Astronomical Twilight
Moon
Length of Visible Light
Length of Day
Tomorrow will be .
, % of the Moon is Illuminated

Today's Extremes

State Highs State Lows

Community

WunderPhotos

Upload Photos

1,824,744 photos uploaded!

WunderBlogs® & News

Nearby

Air Quality

  Air Quality AQ Index Pollutant
Not available.

Snow Depth

Station Depth Elevation

Earthquake Activity

City Distance Mag. Time & Date
Minimum magnitude displayed is 2.5.

Coastal Water Temperatures

Place Temperature

Stations

Nearby Weather Stations

Station Location Temp. Windchill Dew Point Humidity Wind Precip. Elev Updated Type